Terminal Aerodrome Forecast
Issued by NWS

Home | Current Version | Previous Version | Text Only | Print | Product List | Glossary On
Versions: 1 2 3 4 5 6 7 8 9 10 11 12 13
924
FTUS43 KIND 171728
TAFBMG
TAF
KBMG 171728Z 1718/1818 21005KT P6SM -RA OVC060
     FM171900 21006KT P6SM VCSH OVC060
     FM172300 19005KT P6SM OVC060
     FM180300 20005KT P6SM OVC025
     FM180600 22005KT P6SM -DZ BKN003
     FM181300 23005KT 5SM -DZ BR BKN008=

USA.gov is the U.S. government's official web portal to all federal, state and local government web resources and services.